Citta Di Savona — IMDS — position and weather

sailwx.info

Track history (hours):
 
Tides and Currents Weather Stations Pressure Air Temp Water Temp Dewpoint Dewpoint Depression Visibility Wind Speed Wind Dir Waves Ship Positions

Citta Di Savona

Last reported at 2016-Dec-10 16:33 UTC. Time now 2016-Dec-10 16:39 UTC.
Position N 44°18' E 008°29'.

Length 31 m; draft 4.2 m.

Type: Tug. MMSI: 247402000.

Date/timePositionNaut miles runAvg speedWind from/ knotsBaromVisibWave heightAir tempDewpointWater temp
2016-Dec-10 16:33N 44°18' E 008°29'0 0.0
2016-Dec-10 15:33N 44°18' E 008°29'0 0.0
2016-Dec-10 14:33N 44°18' E 008°29'0 0.0
2016-Dec-10 13:33N 44°18' E 008°29'0 0.0
2016-Dec-10 12:33N 44°18' E 008°29'1 1.0
2016-Dec-10 11:33N 44°19' E 008°31'1 0.9
2016-Dec-10 10:28N 44°18' E 008°29'0 0.0
2016-Dec-10 09:28N 44°18' E 008°29'0 0.0
2016-Dec-10 08:28N 44°18' E 008°29'0 0.0
2016-Dec-10 07:28N 44°18' E 008°29'0 0.0
2016-Dec-10 06:28N 44°18' E 008°29'0 0.0
2016-Dec-10 05:28N 44°18' E 008°29'0 0.0
2016-Dec-09 22:29N 44°18' E 008°29'0 0.0
2016-Dec-09 21:23N 44°18' E 008°29'0 0.0
2016-Dec-09 20:29N 44°18' E 008°29'0 0.0
2016-Dec-09 19:29N 44°18' E 008°29'0 0.0
2016-Dec-09 18:29N 44°18' E 008°29'0 0.0
2016-Dec-09 17:30N 44°18' E 008°29'0 0.0
2016-Dec-09 16:30N 44°18' E 008°29'0 0.0
2016-Dec-09 15:30N 44°18' E 008°29'0 0.0
2016-Dec-09 14:30N 44°18' E 008°29'0 0.0
2016-Dec-09 13:30N 44°18' E 008°29'0 0.0
2016-Dec-09 12:30N 44°18' E 008°29'0 0.0
2016-Dec-09 11:24N 44°18' E 008°29'0 0.0
2016-Dec-09 09:29N 44°18' E 008°29'0 0.0
2016-Dec-09 08:29N 44°18' E 008°29'0 0.0
2016-Dec-09 07:29N 44°18' E 008°29'0 0.0
2016-Dec-09 06:29N 44°18' E 008°29'0 0.5
2016-Dec-09 05:34N 44°19' E 008°30'0 0.5
2016-Dec-09 04:33N 44°18' E 008°29'0 0.0
2016-Dec-09 03:33N 44°18' E 008°29'0 0.0
2016-Dec-09 02:33N 44°18' E 008°29'0 0.0
2016-Dec-09 01:33N 44°18' E 008°29'0 0.0
2016-Dec-09 00:33N 44°18' E 008°29'0 0.0
2016-Dec-08 23:33N 44°18' E 008°29'0 0.0
2016-Dec-08 22:33N 44°18' E 008°29'0 0.0
2016-Dec-08 14:09N 44°18' E 008°29'0 0.0
2016-Dec-08 13:33N 44°18' E 008°29'0 0.0
2016-Dec-08 12:33N 44°18' E 008°29'0 0.1
2016-Dec-08 11:33N 44°19' E 008°29'1 0.9
2016-Dec-08 10:33N 44°19' E 008°30'1 0.9
2016-Dec-08 09:33N 44°18' E 008°29'0 0.0
2016-Dec-08 08:33N 44°18' E 008°29'0 0.0
2016-Dec-08 07:33N 44°18' E 008°29'0 0.0
2016-Dec-08 06:33N 44°18' E 008°29'0 0.0
2016-Dec-08 05:33N 44°18' E 008°29'0 0.0
2016-Dec-08 02:23N 44°18' E 008°29'2 2.8
2016-Dec-08 01:33N 44°16' E 008°28'0 0.5
2016-Dec-08 00:33N 44°17' E 008°28'1 0.9
2016-Dec-07 23:33N 44°16' E 008°27'0 0.0
2016-Dec-07 22:33N 44°16' E 008°27'0 0.0
2016-Dec-07 21:33N 44°16' E 008°27'1 0.7
2016-Dec-07 20:33N 44°16' E 008°27'1 0.9
2016-Dec-07 19:33N 44°17' E 008°28'2 2.0
2016-Dec-07 18:33N 44°18' E 008°29'0 0.0
2016-Dec-07 17:33N 44°18' E 008°29'0 0.0
2016-Dec-07 16:33N 44°18' E 008°29'0 0.0
2016-Dec-07 15:34N 44°18' E 008°29'0 0.0
2016-Dec-07 14:33N 44°18' E 008°29'0 0.0
2016-Dec-07 13:33N 44°18' E 008°29'0 0.0
2016-Dec-07 12:33N 44°18' E 008°29'0 0.0
2016-Dec-07 09:33N 44°18' E 008°29'2 2.3
2016-Dec-07 08:33N 44°17' E 008°28'1 0.6
2016-Dec-07 07:33N 44°16' E 008°28'3 2.8
2016-Dec-07 06:33N 44°18' E 008°29'0 0.0
2016-Dec-07 05:33N 44°18' E 008°29'0 0.0
2016-Dec-07 04:33N 44°18' E 008°29'0 0.5
2016-Dec-07 03:33N 44°19' E 008°30'0 0.5
2016-Dec-07 02:33N 44°18' E 008°29'0 0.0
2016-Dec-07 01:33N 44°18' E 008°29'1 0.9
2016-Dec-07 00:33N 44°19' E 008°30'1 0.9
2016-Dec-06 23:33N 44°18' E 008°29'0 0.0
2016-Dec-06 22:33N 44°18' E 008°29'0 0.0
2016-Dec-06 14:05N 44°18' E 008°29'1 1.1
2016-Dec-06 13:33N 44°19' E 008°30'4 3.8
2016-Dec-06 12:33N 44°16' E 008°27'0 0.0
2016-Dec-06 11:33N 44°16' E 008°27'0 0.0
2016-Dec-06 10:33N 44°16' E 008°27'0 0.0
2016-Dec-06 09:33N 44°16' E 008°27'0 0.0
2016-Dec-06 08:33N 44°16' E 008°27'3 3.2
2016-Dec-06 07:33N 44°18' E 008°29'0 0.0
2016-Dec-06 06:33N 44°18' E 008°29'0 0.0
2016-Dec-06 05:33N 44°18' E 008°29'0 0.0
2016-Dec-06 04:33N 44°18' E 008°29'0 0.0
2016-Dec-06 03:33N 44°18' E 008°29'0 0.0
2016-Dec-06 02:33N 44°18' E 008°29'0 0.0
2016-Dec-06 01:33N 44°18' E 008°29'0 0.0
2016-Dec-05 22:33N 44°18' E 008°29'0 0.0
2016-Dec-05 18:20N 44°18' E 008°29'0 0.0
2016-Dec-05 17:33N 44°18' E 008°29'0 0.0
2016-Dec-05 16:33N 44°18' E 008°29'0 0.0
2016-Dec-05 15:33N 44°18' E 008°29'0 0.0
2016-Dec-05 14:33N 44°18' E 008°29'0 0.0
2016-Dec-05 13:33N 44°18' E 008°29'0 0.0
2016-Dec-05 11:13N 44°18' E 008°29'0 0.0
2016-Dec-05 10:06N 44°18' E 008°29'0 0.0
2016-Dec-05 09:20N 44°18' E 008°29'1 1.0
2016-Dec-05 08:33N 44°19' E 008°30'3 3.3
2016-Dec-05 07:33N 44°16' E 008°28'3 3.2
2016-Dec-05 06:33N 44°19' E 008°30'1 0.6
2016-Dec-05 05:33N 44°18' E 008°29'0 0.0
2016-Dec-05 04:33N 44°18' E 008°29'0 0.0
2016-Dec-05 03:33N 44°18' E 008°29'0 0.0
2016-Dec-05 02:33N 44°18' E 008°29'0 0.0
2016-Dec-05 01:33N 44°18' E 008°29'0 0.0
2016-Dec-05 00:33N 44°18' E 008°29'0 0.0
2016-Dec-04 23:33N 44°18' E 008°29'0 0.0
2016-Dec-04 22:33N 44°18' E 008°29'0 0.0
2016-Dec-04 21:33N 44°18' E 008°29'0 0.0
2016-Dec-04 20:33N 44°18' E 008°29'0 0.0
2016-Dec-04 19:33N 44°18' E 008°29'0 0.0
2016-Dec-04 18:33N 44°18' E 008°29'0 0.0
2016-Dec-04 17:33N 44°18' E 008°29'0 0.0
2016-Dec-04 16:33N 44°18' E 008°29'0 0.0
2016-Dec-04 15:33N 44°18' E 008°29'0 0.0
2016-Dec-04 14:33N 44°18' E 008°29'0 0.0
2016-Dec-04 13:33N 44°18' E 008°29'1 0.7
2016-Dec-04 12:33N 44°19' E 008°30'1 0.1
2016-Dec-04 05:32N 44°18' E 008°29'0 0.0
2016-Dec-03 18:30N 44°18' E 008°29'0 0.0
2016-Dec-03 17:30N 44°18' E 008°29'0 0.2
2016-Dec-03 16:33N 44°19' E 008°29'0 0.2
2016-Dec-03 15:28N 44°18' E 008°29'0 0.0
2016-Dec-03 14:28N 44°18' E 008°29'0 0.0
2016-Dec-03 13:28N 44°18' E 008°29'0 0.0
2016-Dec-03 12:28N 44°18' E 008°29'2 2.0
2016-Dec-03 11:28N 44°17' E 008°28'0 0.0
2016-Dec-03 10:22N 44°17' E 008°28'0 0.2
2016-Dec-03 09:28N 44°17' E 008°28'0 0.5
2016-Dec-03 08:31N 44°16' E 008°28'2 1.9
2016-Dec-03 07:33N 44°18' E 008°29'1 1.2
2016-Dec-03 06:30N 44°19' E 008°29'0 0.3
2016-Dec-03 05:32N 44°18' E 008°29'0 0.0
2016-Dec-03 04:32N 44°18' E 008°29'0 0.0
2016-Dec-03 03:32N 44°18' E 008°29'0 0.0
2016-Dec-03 02:32N 44°18' E 008°29'0 0.0
2016-Dec-03 01:32N 44°18' E 008°29'0 0.0
2016-Dec-02 22:28N 44°18' E 008°29'0 0.0
2016-Dec-02 21:22N 44°18' E 008°29'0 0.0
2016-Dec-02 20:28N 44°18' E 008°29'0 0.0
2016-Dec-02 19:16N 44°18' E 008°29'0 0.0
2016-Dec-02 18:28N 44°18' E 008°29'0 0.0
2016-Dec-02 17:22N 44°18' E 008°29'0 0.0
2016-Dec-02 16:28N 44°18' E 008°29'0 0.0
2016-Dec-02 15:28N 44°18' E 008°29'0 0.0
2016-Dec-02 13:12N 44°18' E 008°29'0 0.0
2016-Dec-02 12:30N 44°18' E 008°29'0 0.0
2016-Dec-02 11:30N 44°18' E 008°29'0 0.1
2016-Dec-02 10:33N 44°19' E 008°29'0 0.0
2016-Dec-02 08:07N 44°18' E 008°29'0 0.0
2016-Dec-02 07:31N 44°18' E 008°29'0 0.0
2016-Dec-02 06:31N 44°18' E 008°29'0 0.0
2016-Dec-02 05:31N 44°18' E 008°29'0 0.0
2016-Dec-01 21:32N 44°18' E 008°29'0 0.5
2016-Dec-01 20:32N 44°19' E 008°30'0 0.2
2016-Dec-01 19:32N 44°19' E 008°30'1 0.6
2016-Dec-01 18:29N 44°18' E 008°29'0 0.0
2016-Dec-01 17:17N 44°18' E 008°29'0 0.0
2016-Dec-01 16:29N 44°18' E 008°29'0 0.0
2016-Dec-01 15:29N 44°18' E 008°29'0 0.0
2016-Dec-01 14:29N 44°18' E 008°29'0 0.0
2016-Dec-01 13:29N 44°18' E 008°29'0 0.0
2016-Dec-01 12:29N 44°18' E 008°29'1 1.1
2016-Dec-01 11:33N 44°19' E 008°31'1 1.0
2016-Dec-01 10:32N 44°18' E 008°29'0 0.0
2016-Dec-01 09:32N 44°18' E 008°29'0 0.0
2016-Dec-01 08:32N 44°18' E 008°29'0 0.0
2016-Dec-01 07:32N 44°18' E 008°29'0 0.0
2016-Dec-01 06:32N 44°18' E 008°29'0 0.0
2016-Dec-01 05:32N 44°18' E 008°29'0 0.0
2016-Dec-01 04:18N 44°18' E 008°29'0 0.0
2016-Dec-01 03:30N 44°18' E 008°29'1 0.7
2016-Dec-01 02:33N 44°19' E 008°30'1 0.6
2016-Dec-01 01:33N 44°18' E 008°29'0 0.0
2016-Dec-01 00:33N 44°18' E 008°29'0 0.0
2016-Nov-30 23:33N 44°18' E 008°29'0 0.0
2016-Nov-30 22:33N 44°18' E 008°29'0 0.0
2016-Nov-30 21:33N 44°18' E 008°29'0 0.0
2016-Nov-30 20:33N 44°18' E 008°29'0 0.0
2016-Nov-30 19:27N 44°18' E 008°29'0 0.0
2016-Nov-30 18:33N 44°18' E 008°29'0 0.0
2016-Nov-30 17:33N 44°18' E 008°29'0 0.0
2016-Nov-30 16:33N 44°18' E 008°29'  
Track history (hours):
 
Tides and Currents Weather Stations Pressure Air Temp Water Temp Dewpoint Dewpoint Depression Visibility Wind Speed Wind Dir Waves Ship Positions

Citta Di Savona

Last reported at 2016-Dec-10 16:33 UTC. Time now 2016-Dec-10 16:39 UTC.
Position N 44°18' E 008°29'.

Length 31 m; draft 4.2 m.

Type: Tug. MMSI: 247402000.

Date/timePositionNaut miles runAvg speedWind from/ knotsBaromVisibWave heightAir tempDewpointWater temp
2016-Dec-10 16:33N 44°18' E 008°29'0 0.0
2016-Dec-10 15:33N 44°18' E 008°29'0 0.0
2016-Dec-10 14:33N 44°18' E 008°29'0 0.0
2016-Dec-10 13:33N 44°18' E 008°29'0 0.0
2016-Dec-10 12:33N 44°18' E 008°29'1 1.0
2016-Dec-10 11:33N 44°19' E 008°31'1 0.9
2016-Dec-10 10:28N 44°18' E 008°29'0 0.0
2016-Dec-10 09:28N 44°18' E 008°29'0 0.0
2016-Dec-10 08:28N 44°18' E 008°29'0 0.0
2016-Dec-10 07:28N 44°18' E 008°29'0 0.0
2016-Dec-10 06:28N 44°18' E 008°29'0 0.0
2016-Dec-10 05:28N 44°18' E 008°29'0 0.0
2016-Dec-09 22:29N 44°18' E 008°29'0 0.0
2016-Dec-09 21:23N 44°18' E 008°29'0 0.0
2016-Dec-09 20:29N 44°18' E 008°29'0 0.0
2016-Dec-09 19:29N 44°18' E 008°29'0 0.0
2016-Dec-09 18:29N 44°18' E 008°29'0 0.0
2016-Dec-09 17:30N 44°18' E 008°29'0 0.0
2016-Dec-09 16:30N 44°18' E 008°29'0 0.0
2016-Dec-09 15:30N 44°18' E 008°29'0 0.0
2016-Dec-09 14:30N 44°18' E 008°29'0 0.0
2016-Dec-09 13:30N 44°18' E 008°29'0 0.0
2016-Dec-09 12:30N 44°18' E 008°29'0 0.0
2016-Dec-09 11:24N 44°18' E 008°29'0 0.0
2016-Dec-09 09:29N 44°18' E 008°29'0 0.0
2016-Dec-09 08:29N 44°18' E 008°29'0 0.0
2016-Dec-09 07:29N 44°18' E 008°29'0 0.0
2016-Dec-09 06:29N 44°18' E 008°29'0 0.5
2016-Dec-09 05:34N 44°19' E 008°30'0 0.5
2016-Dec-09 04:33N 44°18' E 008°29'0 0.0
2016-Dec-09 03:33N 44°18' E 008°29'0 0.0
2016-Dec-09 02:33N 44°18' E 008°29'0 0.0
2016-Dec-09 01:33N 44°18' E 008°29'0 0.0
2016-Dec-09 00:33N 44°18' E 008°29'0 0.0
2016-Dec-08 23:33N 44°18' E 008°29'0 0.0
2016-Dec-08 22:33N 44°18' E 008°29'0 0.0
2016-Dec-08 14:09N 44°18' E 008°29'0 0.0
2016-Dec-08 13:33N 44°18' E 008°29'0 0.0
2016-Dec-08 12:33N 44°18' E 008°29'0 0.1
2016-Dec-08 11:33N 44°19' E 008°29'1 0.9
2016-Dec-08 10:33N 44°19' E 008°30'1 0.9
2016-Dec-08 09:33N 44°18' E 008°29'0 0.0
2016-Dec-08 08:33N 44°18' E 008°29'0 0.0
2016-Dec-08 07:33N 44°18' E 008°29'0 0.0
2016-Dec-08 06:33N 44°18' E 008°29'0 0.0
2016-Dec-08 05:33N 44°18' E 008°29'0 0.0
2016-Dec-08 02:23N 44°18' E 008°29'2 2.8
2016-Dec-08 01:33N 44°16' E 008°28'0 0.5
2016-Dec-08 00:33N 44°17' E 008°28'1 0.9
2016-Dec-07 23:33N 44°16' E 008°27'0 0.0
2016-Dec-07 22:33N 44°16' E 008°27'0 0.0
2016-Dec-07 21:33N 44°16' E 008°27'1 0.7
2016-Dec-07 20:33N 44°16' E 008°27'1 0.9
2016-Dec-07 19:33N 44°17' E 008°28'2 2.0
2016-Dec-07 18:33N 44°18' E 008°29'0 0.0
2016-Dec-07 17:33N 44°18' E 008°29'0 0.0
2016-Dec-07 16:33N 44°18' E 008°29'0 0.0
2016-Dec-07 15:34N 44°18' E 008°29'0 0.0
2016-Dec-07 14:33N 44°18' E 008°29'0 0.0
2016-Dec-07 13:33N 44°18' E 008°29'0 0.0
2016-Dec-07 12:33N 44°18' E 008°29'0 0.0
2016-Dec-07 09:33N 44°18' E 008°29'2 2.3
2016-Dec-07 08:33N 44°17' E 008°28'1 0.6
2016-Dec-07 07:33N 44°16' E 008°28'3 2.8
2016-Dec-07 06:33N 44°18' E 008°29'0 0.0
2016-Dec-07 05:33N 44°18' E 008°29'0 0.0
2016-Dec-07 04:33N 44°18' E 008°29'0 0.5
2016-Dec-07 03:33N 44°19' E 008°30'0 0.5
2016-Dec-07 02:33N 44°18' E 008°29'0 0.0
2016-Dec-07 01:33N 44°18' E 008°29'1 0.9
2016-Dec-07 00:33N 44°19' E 008°30'1 0.9
2016-Dec-06 23:33N 44°18' E 008°29'0 0.0
2016-Dec-06 22:33N 44°18' E 008°29'0 0.0
2016-Dec-06 14:05N 44°18' E 008°29'1 1.1
2016-Dec-06 13:33N 44°19' E 008°30'4 3.8
2016-Dec-06 12:33N 44°16' E 008°27'0 0.0
2016-Dec-06 11:33N 44°16' E 008°27'0 0.0
2016-Dec-06 10:33N 44°16' E 008°27'0 0.0
2016-Dec-06 09:33N 44°16' E 008°27'0 0.0
2016-Dec-06 08:33N 44°16' E 008°27'3 3.2
2016-Dec-06 07:33N 44°18' E 008°29'0 0.0
2016-Dec-06 06:33N 44°18' E 008°29'0 0.0
2016-Dec-06 05:33N 44°18' E 008°29'0 0.0
2016-Dec-06 04:33N 44°18' E 008°29'0 0.0
2016-Dec-06 03:33N 44°18' E 008°29'0 0.0
2016-Dec-06 02:33N 44°18' E 008°29'0 0.0
2016-Dec-06 01:33N 44°18' E 008°29'0 0.0
2016-Dec-05 22:33N 44°18' E 008°29'0 0.0
2016-Dec-05 18:20N 44°18' E 008°29'0 0.0
2016-Dec-05 17:33N 44°18' E 008°29'0 0.0
2016-Dec-05 16:33N 44°18' E 008°29'0 0.0
2016-Dec-05 15:33N 44°18' E 008°29'0 0.0
2016-Dec-05 14:33N 44°18' E 008°29'0 0.0
2016-Dec-05 13:33N 44°18' E 008°29'0 0.0
2016-Dec-05 11:13N 44°18' E 008°29'0 0.0
2016-Dec-05 10:06N 44°18' E 008°29'0 0.0
2016-Dec-05 09:20N 44°18' E 008°29'1 1.0
2016-Dec-05 08:33N 44°19' E 008°30'3 3.3
2016-Dec-05 07:33N 44°16' E 008°28'3 3.2
2016-Dec-05 06:33N 44°19' E 008°30'1 0.6
2016-Dec-05 05:33N 44°18' E 008°29'0 0.0
2016-Dec-05 04:33N 44°18' E 008°29'0 0.0
2016-Dec-05 03:33N 44°18' E 008°29'0 0.0
2016-Dec-05 02:33N 44°18' E 008°29'0 0.0
2016-Dec-05 01:33N 44°18' E 008°29'0 0.0
2016-Dec-05 00:33N 44°18' E 008°29'0 0.0
2016-Dec-04 23:33N 44°18' E 008°29'0 0.0
2016-Dec-04 22:33N 44°18' E 008°29'0 0.0
2016-Dec-04 21:33N 44°18' E 008°29'0 0.0
2016-Dec-04 20:33N 44°18' E 008°29'0 0.0
2016-Dec-04 19:33N 44°18' E 008°29'0 0.0
2016-Dec-04 18:33N 44°18' E 008°29'0 0.0
2016-Dec-04 17:33N 44°18' E 008°29'0 0.0
2016-Dec-04 16:33N 44°18' E 008°29'0 0.0
2016-Dec-04 15:33N 44°18' E 008°29'0 0.0
2016-Dec-04 14:33N 44°18' E 008°29'0 0.0
2016-Dec-04 13:33N 44°18' E 008°29'1 0.7
2016-Dec-04 12:33N 44°19' E 008°30'1 0.1
2016-Dec-04 05:32N 44°18' E 008°29'0 0.0
2016-Dec-03 18:30N 44°18' E 008°29'0 0.0
2016-Dec-03 17:30N 44°18' E 008°29'0 0.2
2016-Dec-03 16:33N 44°19' E 008°29'0 0.2
2016-Dec-03 15:28N 44°18' E 008°29'0 0.0
2016-Dec-03 14:28N 44°18' E 008°29'0 0.0
2016-Dec-03 13:28N 44°18' E 008°29'0 0.0
2016-Dec-03 12:28N 44°18' E 008°29'2 2.0
2016-Dec-03 11:28N 44°17' E 008°28'0 0.0
2016-Dec-03 10:22N 44°17' E 008°28'0 0.2
2016-Dec-03 09:28N 44°17' E 008°28'0 0.5
2016-Dec-03 08:31N 44°16' E 008°28'2 1.9
2016-Dec-03 07:33N 44°18' E 008°29'1 1.2
2016-Dec-03 06:30N 44°19' E 008°29'0 0.3
2016-Dec-03 05:32N 44°18' E 008°29'0 0.0
2016-Dec-03 04:32N 44°18' E 008°29'0 0.0
2016-Dec-03 03:32N 44°18' E 008°29'0 0.0
2016-Dec-03 02:32N 44°18' E 008°29'0 0.0
2016-Dec-03 01:32N 44°18' E 008°29'0 0.0
2016-Dec-02 22:28N 44°18' E 008°29'0 0.0
2016-Dec-02 21:22N 44°18' E 008°29'0 0.0
2016-Dec-02 20:28N 44°18' E 008°29'0 0.0
2016-Dec-02 19:16N 44°18' E 008°29'0 0.0
2016-Dec-02 18:28N 44°18' E 008°29'0 0.0
2016-Dec-02 17:22N 44°18' E 008°29'0 0.0
2016-Dec-02 16:28N 44°18' E 008°29'0 0.0
2016-Dec-02 15:28N 44°18' E 008°29'0 0.0
2016-Dec-02 13:12N 44°18' E 008°29'0 0.0
2016-Dec-02 12:30N 44°18' E 008°29'0 0.0
2016-Dec-02 11:30N 44°18' E 008°29'0 0.1
2016-Dec-02 10:33N 44°19' E 008°29'0 0.0
2016-Dec-02 08:07N 44°18' E 008°29'0 0.0
2016-Dec-02 07:31N 44°18' E 008°29'0 0.0
2016-Dec-02 06:31N 44°18' E 008°29'0 0.0
2016-Dec-02 05:31N 44°18' E 008°29'0 0.0
2016-Dec-01 21:32N 44°18' E 008°29'0 0.5
2016-Dec-01 20:32N 44°19' E 008°30'0 0.2
2016-Dec-01 19:32N 44°19' E 008°30'1 0.6
2016-Dec-01 18:29N 44°18' E 008°29'0 0.0
2016-Dec-01 17:17N 44°18' E 008°29'0 0.0
2016-Dec-01 16:29N 44°18' E 008°29'0 0.0
2016-Dec-01 15:29N 44°18' E 008°29'0 0.0
2016-Dec-01 14:29N 44°18' E 008°29'0 0.0
2016-Dec-01 13:29N 44°18' E 008°29'0 0.0
2016-Dec-01 12:29N 44°18' E 008°29'1 1.1
2016-Dec-01 11:33N 44°19' E 008°31'1 1.0
2016-Dec-01 10:32N 44°18' E 008°29'0 0.0
2016-Dec-01 09:32N 44°18' E 008°29'0 0.0
2016-Dec-01 08:32N 44°18' E 008°29'0 0.0
2016-Dec-01 07:32N 44°18' E 008°29'0 0.0
2016-Dec-01 06:32N 44°18' E 008°29'0 0.0
2016-Dec-01 05:32N 44°18' E 008°29'0 0.0
2016-Dec-01 04:18N 44°18' E 008°29'0 0.0
2016-Dec-01 03:30N 44°18' E 008°29'1 0.7
2016-Dec-01 02:33N 44°19' E 008°30'1 0.6
2016-Dec-01 01:33N 44°18' E 008°29'0 0.0
2016-Dec-01 00:33N 44°18' E 008°29'0 0.0
2016-Nov-30 23:33N 44°18' E 008°29'0 0.0
2016-Nov-30 22:33N 44°18' E 008°29'0 0.0
2016-Nov-30 21:33N 44°18' E 008°29'0 0.0
2016-Nov-30 20:33N 44°18' E 008°29'0 0.0
2016-Nov-30 19:27N 44°18' E 008°29'0 0.0
2016-Nov-30 18:33N 44°18' E 008°29'0 0.0
2016-Nov-30 17:33N 44°18' E 008°29'0 0.0
2016-Nov-30 16:33N 44°18' E 008°29'  

Dump ship's entire track history